Time;durP1;ratioP1;P1;durP2;ratioP2;P2;SDS_P1;SDS_P2;PMS_P1;PMS_P2;Temp;Humidity;BMP_temperature;BMP_pressure;BME280_temperature;BME280_humidity;BME280_pressure;Samples;Min_cycle;Max_cycle;Signal;HPM_P1;HPM_P2
2022/07/28 00:03:05;;;;;;;6.93;4.38;;;;;;;;;;10070398;28;20496;-65
2022/07/28 00:07:59;;;;;;;10.68;5.15;;;;;;;;;;10070692;28;20134;-66
2022/07/28 00:12:53;;;;;;;10.48;6.63;;;;;;;;;;10079305;28;20407;-65
2022/07/28 00:17:47;;;;;;;10.77;6.25;;;;;;;;;;10070630;28;20057;-64
2022/07/28 00:22:42;;;;;;;11.35;6.53;;;;;;;;;;10069986;28;20060;-65
2022/07/28 00:27:36;;;;;;;10.35;5.90;;;;;;;;;;10071681;28;20133;-64
2022/07/28 00:32:30;;;;;;;9.00;5.53;;;;;;;;;;10050571;28;20049;-65
2022/07/28 00:37:23;;;;;;;7.88;5.55;;;;;;;;;;10070970;28;20519;-65
2022/07/28 00:42:19;;;;;;;8.73;6.70;;;;;;;;;;10062563;28;20103;-64
2022/07/28 00:47:13;;;;;;;11.55;8.55;;;;;;;;;;10068572;28;20510;-63
2022/07/28 00:52:08;;;;;;;13.93;8.27;;;;;;;;;;10069937;28;20053;-64
2022/07/28 00:57:02;;;;;;;12.88;8.20;;;;;;;;;;10069153;28;20050;-64
2022/07/28 01:01:56;;;;;;;10.10;7.38;;;;;;;;;;10069735;28;20053;-63
2022/07/28 01:07:13;;;;;;;10.07;6.63;;;;;;;;;;10053508;28;20484;-63
2022/07/28 01:12:15;;;;;;;9.63;5.45;;;;;;;;;;10062819;28;20057;-64
2022/07/28 01:17:35;;;;;;;11.38;7.13;;;;;;;;;;10069763;28;20041;-63
2022/07/28 01:22:37;;;;;;;13.43;7.18;;;;;;;;;;10064572;28;20068;-63
2022/07/28 01:27:49;;;;;;;10.57;6.10;;;;;;;;;;10069385;28;20053;-62
2022/07/28 01:32:45;;;;;;;11.13;6.72;;;;;;;;;;10065812;28;20057;-63
2022/07/28 01:37:44;;;;;;;15.68;10.80;;;;;;;;;;10054617;28;20049;-63
2022/07/28 01:42:43;;;;;;;14.48;10.90;;;;;;;;;;10066051;28;20497;-62
2022/07/28 01:47:42;;;;;;;24.23;11.75;;;;;;;;;;10058329;28;20136;-62
2022/07/28 01:52:36;;;;;;;13.65;11.88;;;;;;;;;;10059046;28;20401;-63
2022/07/28 01:57:32;;;;;;;14.63;11.65;;;;;;;;;;10065669;28;20136;-62
2022/07/28 02:02:27;;;;;;;14.05;12.65;;;;;;;;;;10065545;28;20407;-63
2022/07/28 02:07:22;;;;;;;14.45;11.88;;;;;;;;;;10066419;28;20111;-63
2022/07/28 02:12:17;;;;;;;18.42;13.77;;;;;;;;;;10054446;28;20050;-63
2022/07/28 02:17:15;;;;;;;14.60;12.57;;;;;;;;;;10055781;28;20049;-63
2022/07/28 02:22:08;;;;;;;15.38;13.77;;;;;;;;;;10027824;28;20398;-63
2022/07/28 02:27:17;;;;;;;22.25;13.30;;;;;;;;;;10026094;28;20057;-63
2022/07/28 02:32:22;;;;;;;16.00;12.30;;;;;;;;;;10059449;28;20049;-63
2022/07/28 02:37:21;;;;;;;19.15;12.60;;;;;;;;;;10065453;28;20049;-63
2022/07/28 02:42:22;;;;;;;15.27;12.35;;;;;;;;;;10066788;28;20057;-63
2022/07/28 02:47:20;;;;;;;14.18;12.25;;;;;;;;;;10052043;28;20054;-63
2022/07/28 02:52:15;;;;;;;19.55;12.43;;;;;;;;;;10060070;28;20485;-63
2022/07/28 02:57:09;;;;;;;16.63;11.70;;;;;;;;;;10057941;28;20073;-63
2022/07/28 03:02:03;;;;;;;13.80;12.38;;;;;;;;;;10065489;28;20088;-63
2022/07/28 03:06:58;;;;;;;15.40;12.25;;;;;;;;;;10064192;28;20077;-63
2022/07/28 03:11:52;;;;;;;16.10;10.15;;;;;;;;;;10029092;28;20410;-62
2022/07/28 03:16:45;;;;;;;18.60;10.90;;;;;;;;;;10051482;28;20378;-62
2022/07/28 03:21:48;;;;;;;20.15;11.98;;;;;;;;;;10025737;28;20064;-62
2022/07/28 03:26:48;;;;;;;11.68;10.57;;;;;;;;;;10026709;28;20112;-62
2022/07/28 03:31:44;;;;;;;14.25;9.65;;;;;;;;;;10032423;28;20058;-63
2022/07/28 03:36:42;;;;;;;13.40;6.78;;;;;;;;;;10052336;28;20069;-63
2022/07/28 03:41:36;;;;;;;11.35;7.28;;;;;;;;;;10067615;28;20132;-63
2022/07/28 03:46:31;;;;;;;12.80;8.95;;;;;;;;;;10060233;28;20057;-63
2022/07/28 03:51:27;;;;;;;11.13;8.40;;;;;;;;;;10071852;28;20057;-63
2022/07/28 03:56:20;;;;;;;17.27;12.13;;;;;;;;;;10062290;28;20164;-63
2022/07/28 04:01:15;;;;;;;12.57;9.93;;;;;;;;;;10070493;28;20061;-63
2022/07/28 04:06:09;;;;;;;13.68;10.00;;;;;;;;;;10069616;28;20085;-63
2022/07/28 04:11:03;;;;;;;8.65;7.78;;;;;;;;;;10059579;28;20070;-63
2022/07/28 04:15:56;;;;;;;10.75;8.43;;;;;;;;;;10063237;28;20483;-63
2022/07/28 04:20:51;;;;;;;20.10;10.15;;;;;;;;;;10071085;28;20472;-66
2022/07/28 04:25:44;;;;;;;10.30;8.02;;;;;;;;;;10071027;28;20496;-63
2022/07/28 04:30:38;;;;;;;11.02;8.50;;;;;;;;;;10071958;28;20053;-63
2022/07/28 04:35:36;;;;;;;;;;;;;;;;;;10064871;28;20060;-63
2022/07/28 04:40:30;;;;;;;9.80;7.25;;;;;;;;;;10063582;28;19921;-63
2022/07/28 04:45:24;;;;;;;9.68;6.88;;;;;;;;;;10053719;28;20424;-63
2022/07/28 04:50:20;;;;;;;7.88;6.72;;;;;;;;;;10052076;28;20057;-63
2022/07/28 04:55:24;;;;;;;12.18;7.25;;;;;;;;;;10062653;28;20053;-63
2022/07/28 05:00:18;;;;;;;10.20;6.97;;;;;;;;;;10066890;28;20080;-63
2022/07/28 05:05:14;;;;;;;11.93;8.27;;;;;;;;;;10069664;28;20471;-63
2022/07/28 05:10:10;;;;;;;12.75;8.68;;;;;;;;;;10068515;28;20057;-63
2022/07/28 05:15:07;;;;;;;8.55;7.68;;;;;;;;;;10069234;28;20174;-63
2022/07/28 05:20:00;;;;;;;7.80;6.95;;;;;;;;;;10061727;28;20053;-63
2022/07/28 05:24:56;;;;;;;9.32;7.60;;;;;;;;;;10068547;28;20049;-63
2022/07/28 05:29:50;;;;;;;9.20;8.07;;;;;;;;;;10067553;28;20516;-63
2022/07/28 05:34:45;;;;;;;10.48;7.28;;;;;;;;;;10067490;28;20050;-63
2022/07/28 05:39:39;;;;;;;9.93;8.65;;;;;;;;;;10067692;28;20566;-63
2022/07/28 05:44:33;;;;;;;9.45;8.45;;;;;;;;;;10067741;28;20100;-63
2022/07/28 05:49:30;;;;;;;9.65;8.35;;;;;;;;;;10061202;28;20049;-63
2022/07/28 05:54:24;;;;;;;14.27;8.55;;;;;;;;;;10059127;28;20049;-63
2022/07/28 05:59:18;;;;;;;8.80;7.90;;;;;;;;;;10050493;28;20519;-64
2022/07/28 06:04:12;;;;;;;12.57;7.97;;;;;;;;;;10054326;28;20059;-64
2022/07/28 06:09:22;;;;;;;12.40;8.50;;;;;;;;;;10053385;28;20061;-64
2022/07/28 06:14:17;;;;;;;17.88;7.22;;;;;;;;;;10064823;28;20119;-64
2022/07/28 06:19:12;;;;;;;12.90;7.95;;;;;;;;;;10061007;28;20058;-64
2022/07/28 06:24:09;;;;;;;18.75;8.02;;;;;;;;;;10063375;28;20052;-64
2022/07/28 06:29:04;;;;;;;18.20;7.75;;;;;;;;;;10065309;28;20496;-64
2022/07/28 06:33:58;;;;;;;10.95;7.85;;;;;;;;;;10066650;28;20084;-64
2022/07/28 06:38:52;;;;;;;10.50;7.13;;;;;;;;;;10065103;28;20049;-63
2022/07/28 06:43:46;;;;;;;30.75;8.63;;;;;;;;;;10058790;28;20052;-64
2022/07/28 06:48:42;;;;;;;9.35;7.43;;;;;;;;;;10070571;28;20049;-63
2022/07/28 06:53:36;;;;;;;9.13;7.32;;;;;;;;;;10065130;28;20457;-63
2022/07/28 06:58:31;;;;;;;12.93;7.60;;;;;;;;;;10064507;28;20057;-63
2022/07/28 07:03:25;;;;;;;10.80;7.45;;;;;;;;;;10062085;28;20123;-63
2022/07/28 07:08:20;;;;;;;11.93;6.93;;;;;;;;;;10072415;28;20041;-64
2022/07/28 07:13:13;;;;;;;12.40;7.68;;;;;;;;;;10074592;28;20103;-63
2022/07/28 07:18:06;;;;;;;8.30;6.82;;;;;;;;;;10068123;28;20497;-63
2022/07/28 07:23:02;;;;;;;9.68;6.50;;;;;;;;;;10070805;28;20056;-63
2022/07/28 07:27:57;;;;;;;9.07;7.57;;;;;;;;;;10071987;28;20552;-62
2022/07/28 07:32:51;;;;;;;9.77;6.90;;;;;;;;;;10067471;28;20041;-63
2022/07/28 07:37:45;;;;;;;10.90;7.57;;;;;;;;;;10075355;28;20053;-61
2022/07/28 07:42:39;;;;;;;7.35;6.15;;;;;;;;;;10071894;28;20140;-66
2022/07/28 07:47:33;;;;;;;8.63;6.32;;;;;;;;;;10076969;28;20108;-66
2022/07/28 07:52:27;;;;;;;10.70;5.50;;;;;;;;;;10071451;28;20053;-66
2022/07/28 07:57:21;;;;;;;10.40;7.65;;;;;;;;;;10070948;28;20451;-64
2022/07/28 08:02:15;;;;;;;8.57;6.18;;;;;;;;;;10071416;28;20053;-66
2022/07/28 08:07:10;;;;;;;6.15;4.78;;;;;;;;;;10071374;28;20055;-66
2022/07/28 08:12:08;;;;;;;9.35;5.43;;;;;;;;;;10070426;28;20061;-65
2022/07/28 08:17:02;;;;;;;14.38;6.50;;;;;;;;;;10069945;28;20531;-65
2022/07/28 08:21:56;;;;;;;9.75;6.68;;;;;;;;;;10063981;28;20091;-65
2022/07/28 08:26:51;;;;;;;7.88;5.78;;;;;;;;;;10039237;28;20049;-64
2022/07/28 08:31:45;;;;;;;6.63;5.95;;;;;;;;;;10064879;28;20404;-63
2022/07/28 08:36:40;;;;;;;7.45;5.30;;;;;;;;;;10069790;28;20041;-65
2022/07/28 08:41:55;;;;;;;12.38;5.65;;;;;;;;;;10066476;28;20069;-65
2022/07/28 08:46:49;;;;;;;8.10;4.72;;;;;;;;;;10066421;28;20045;-65
2022/07/28 08:51:47;;;;;;;8.07;5.20;;;;;;;;;;10065139;28;20504;-64
2022/07/28 08:56:41;;;;;;;6.35;4.63;;;;;;;;;;10064721;28;20049;-64
2022/07/28 09:01:40;;;;;;;7.85;4.95;;;;;;;;;;10066692;28;20049;-64
2022/07/28 09:06:40;;;;;;;10.38;5.35;;;;;;;;;;10061664;28;20507;-64
2022/07/28 09:11:38;;;;;;;6.53;5.07;;;;;;;;;;10066100;28;20049;-64
2022/07/28 09:16:33;;;;;;;7.03;5.43;;;;;;;;;;10066336;28;20145;-64
2022/07/28 09:21:27;;;;;;;8.82;5.15;;;;;;;;;;10057234;28;20061;-64
2022/07/28 09:26:21;;;;;;;9.15;5.10;;;;;;;;;;10052914;28;20481;-64
2022/07/28 09:31:16;;;;;;;8.98;4.60;;;;;;;;;;10049972;28;20045;-64
2022/07/28 09:36:16;;;;;;;5.60;4.70;;;;;;;;;;10052728;28;20057;-64
2022/07/28 09:41:10;;;;;;;7.78;4.82;;;;;;;;;;10046090;28;20144;-64
2022/07/28 09:46:09;;;;;;;8.57;5.18;;;;;;;;;;10050172;28;20057;-64
2022/07/28 09:51:12;;;;;;;5.85;4.00;;;;;;;;;;10069745;28;20046;-63
2022/07/28 09:56:06;;;;;;;9.50;4.32;;;;;;;;;;10064643;28;20056;-63
2022/07/28 10:01:11;;;;;;;4.60;4.00;;;;;;;;;;10063361;28;20069;-62
2022/07/28 10:06:07;;;;;;;4.90;4.40;;;;;;;;;;10090808;28;20049;-62
2022/07/28 10:11:02;;;;;;;6.25;4.22;;;;;;;;;;10094380;28;20072;-63
2022/07/28 10:16:11;;;;;;;12.50;4.67;;;;;;;;;;10063834;28;20124;-62
2022/07/28 10:21:08;;;;;;;8.90;4.50;;;;;;;;;;10077664;28;20060;-62
2022/07/28 10:26:02;;;;;;;5.65;4.55;;;;;;;;;;10073181;28;20049;-62
2022/07/28 10:31:08;;;;;;;10.40;4.28;;;;;;;;;;10071465;28;20111;-61
2022/07/28 10:36:03;;;;;;;5.82;4.30;;;;;;;;;;10066245;28;20053;-62
2022/07/28 10:40:58;;;;;;;7.75;3.67;;;;;;;;;;10064045;28;20496;-63
2022/07/28 10:45:53;;;;;;;7.93;3.53;;;;;;;;;;10063275;28;20057;-63
2022/07/28 10:50:59;;;;;;;4.90;3.20;;;;;;;;;;10075655;28;20056;-63
2022/07/28 10:56:05;;;;;;;5.20;3.90;;;;;;;;;;10061245;28;20508;-63
2022/07/28 11:00:59;;;;;;;4.38;3.88;;;;;;;;;;10060630;28;20099;-61
2022/07/28 11:05:58;;;;;;;9.32;3.97;;;;;;;;;;10062628;28;20045;-62
2022/07/28 11:10:53;;;;;;;5.93;3.90;;;;;;;;;;10063508;28;20061;-62
2022/07/28 11:16:13;;;;;;;5.50;4.22;;;;;;;;;;10064198;28;20465;-63
2022/07/28 11:21:08;;;;;;;8.70;4.32;;;;;;;;;;10060850;28;20057;-62
2022/07/28 11:26:19;;;;;;;7.55;4.13;;;;;;;;;;10065477;28;20057;-63
2022/07/28 11:31:13;;;;;;;5.30;4.10;;;;;;;;;;10070941;28;20049;-64
2022/07/28 11:36:14;;;;;;;6.65;3.53;;;;;;;;;;10070858;28;20489;-63
2022/07/28 11:41:30;;;;;;;4.80;3.95;;;;;;;;;;10069248;28;20053;-60
2022/07/28 11:46:26;;;;;;;6.53;3.80;;;;;;;;;;10065756;28;20056;-64
2022/07/28 11:51:21;;;;;;;6.10;3.22;;;;;;;;;;10072435;28;20107;-65
2022/07/28 11:56:23;;;;;;;9.82;3.90;;;;;;;;;;10081103;28;20042;-65
2022/07/28 12:01:19;;;;;;;7.85;4.00;;;;;;;;;;10072747;28;20072;-64
2022/07/28 12:06:15;;;;;;;4.40;4.00;;;;;;;;;;10062186;28;20568;-64
2022/07/28 12:11:23;;;;;;;6.35;3.58;;;;;;;;;;10060759;28;20528;-64
2022/07/28 12:16:18;;;;;;;4.68;3.75;;;;;;;;;;10059779;28;20049;-64
2022/07/28 12:21:14;;;;;;;5.55;3.90;;;;;;;;;;10056889;28;20057;-64
2022/07/28 12:26:08;;;;;;;5.40;4.75;;;;;;;;;;10069043;28;20053;-65
2022/07/28 12:31:12;;;;;;;5.75;3.95;;;;;;;;;;10069760;28;20054;-65
2022/07/28 12:36:06;;;;;;;6.60;3.70;;;;;;;;;;10069561;28;20499;-64
2022/07/28 12:41:00;;;;;;;7.60;4.30;;;;;;;;;;10069205;28;20085;-65
2022/07/28 12:45:54;;;;;;;8.23;4.95;;;;;;;;;;10070072;28;20045;-65
2022/07/28 12:50:49;;;;;;;6.32;4.70;;;;;;;;;;10069162;28;20045;-65
2022/07/28 12:55:43;;;;;;;6.72;4.90;;;;;;;;;;10068513;28;20049;-65
2022/07/28 13:00:48;;;;;;;10.63;4.82;;;;;;;;;;10065953;28;20099;-64
2022/07/28 13:10:53;;;;;;;5.85;4.13;;;;;;;;;;10069020;28;20132;-64
2022/07/28 13:16:08;;;;;;;;;;;;;;;;;;10068961;28;20049;-64
2022/07/28 13:21:03;;;;;;;7.38;4.32;;;;;;;;;;10063365;28;19927;-64
2022/07/28 13:25:57;;;;;;;4.65;3.80;;;;;;;;;;10061248;28;20116;-64
2022/07/28 13:30:51;;;;;;;5.72;4.00;;;;;;;;;;10068105;28;20057;-64
2022/07/28 13:35:46;;;;;;;4.43;4.03;;;;;;;;;;10064747;28;20067;-65
2022/07/28 13:40:40;;;;;;;6.07;4.20;;;;;;;;;;10066143;28;20057;-64
2022/07/28 13:45:36;;;;;;;9.38;6.30;;;;;;;;;;10066793;28;20046;-65
2022/07/28 13:50:30;;;;;;;11.73;5.10;;;;;;;;;;10067109;28;20535;-64
2022/07/28 13:55:24;;;;;;;10.82;5.95;;;;;;;;;;10066264;28;20061;-64
2022/07/28 14:00:18;;;;;;;8.90;4.60;;;;;;;;;;10067157;28;20049;-65
2022/07/28 14:05:14;;;;;;;7.70;5.20;;;;;;;;;;10070024;28;20128;-65
2022/07/28 14:10:10;;;;;;;6.90;4.95;;;;;;;;;;10070098;28;20095;-65
2022/07/28 14:15:06;;;;;;;6.25;4.57;;;;;;;;;;10061963;28;20099;-65
2022/07/28 14:20:00;;;;;;;5.25;4.10;;;;;;;;;;10076821;28;20092;-65
2022/07/28 14:24:54;;;;;;;7.57;4.32;;;;;;;;;;10062814;28;20050;-65
2022/07/28 14:29:48;;;;;;;9.35;4.32;;;;;;;;;;10067107;28;20037;-66
2022/07/28 14:34:42;;;;;;;10.02;4.70;;;;;;;;;;10064523;28;20124;-65
2022/07/28 14:39:37;;;;;;;7.72;4.65;;;;;;;;;;10060978;28;20059;-65
2022/07/28 14:44:31;;;;;;;7.88;4.43;;;;;;;;;;10060789;28;20401;-65
2022/07/28 14:49:25;;;;;;;7.43;3.95;;;;;;;;;;10065201;28;20089;-65
2022/07/28 14:54:20;;;;;;;5.43;4.00;;;;;;;;;;10060849;28;20045;-65
2022/07/28 14:59:13;;;;;;;4.93;3.75;;;;;;;;;;10063134;28;20111;-65
2022/07/28 15:04:09;;;;;;;12.05;4.20;;;;;;;;;;10064880;28;20445;-65
2022/07/28 15:09:02;;;;;;;5.70;3.95;;;;;;;;;;10064720;28;20056;-65
2022/07/28 15:13:58;;;;;;;4.45;4.05;;;;;;;;;;10065102;28;20076;-65
2022/07/28 15:18:55;;;;;;;3.92;3.53;;;;;;;;;;10067700;28;20107;-65
2022/07/28 15:23:49;;;;;;;12.18;5.15;;;;;;;;;;10066433;28;20041;-65
2022/07/28 15:28:47;;;;;;;5.30;4.20;;;;;;;;;;10069396;28;20133;-67
2022/07/28 15:33:41;;;;;;;5.93;4.93;;;;;;;;;;10069470;28;20081;-67
2022/07/28 15:38:44;;;;;;;4.63;4.20;;;;;;;;;;10070809;28;20561;-67
2022/07/28 15:43:43;;;;;;;4.45;4.05;;;;;;;;;;10069782;28;20053;-67
2022/07/28 15:48:41;;;;;;;8.38;4.25;;;;;;;;;;10067139;28;20136;-67
2022/07/28 15:53:35;;;;;;;7.32;4.50;;;;;;;;;;10070514;28;20050;-67
2022/07/28 15:58:29;;;;;;;7.13;4.13;;;;;;;;;;10072347;28;20488;-67
2022/07/28 16:03:23;;;;;;;6.82;3.72;;;;;;;;;;10070693;28;20052;-67
2022/07/28 16:08:19;;;;;;;7.75;4.00;;;;;;;;;;10069058;28;20455;-65
2022/07/28 16:13:15;;;;;;;5.68;3.63;;;;;;;;;;10072673;28;20049;-66
2022/07/28 16:18:18;;;;;;;5.53;3.88;;;;;;;;;;10068771;28;20075;-66
2022/07/28 16:23:12;;;;;;;4.78;4.30;;;;;;;;;;10069070;28;20107;-66
2022/07/28 16:28:06;;;;;;;4.15;3.72;;;;;;;;;;10070425;28;20049;-66
2022/07/28 16:33:00;;;;;;;6.03;4.55;;;;;;;;;;10063613;28;20052;-66
2022/07/28 16:37:54;;;;;;;4.70;3.40;;;;;;;;;;10069480;28;20559;-65
2022/07/28 16:42:51;;;;;;;4.95;3.55;;;;;;;;;;10071507;28;20050;-64
2022/07/28 16:47:45;;;;;;;3.88;3.42;;;;;;;;;;10069398;28;20148;-64
2022/07/28 16:52:40;;;;;;;6.55;3.53;;;;;;;;;;10063750;28;20104;-65
2022/07/28 16:57:34;;;;;;;6.43;3.75;;;;;;;;;;10068321;28;20057;-65
2022/07/28 17:02:28;;;;;;;11.32;4.35;;;;;;;;;;10068147;28;20106;-64
2022/07/28 17:07:23;;;;;;;5.43;3.92;;;;;;;;;;10063864;28;20054;-64
2022/07/28 17:12:17;;;;;;;6.88;3.80;;;;;;;;;;10070545;28;20057;-65
2022/07/28 17:17:11;;;;;;;9.05;4.15;;;;;;;;;;10071229;28;20076;-64
2022/07/28 17:22:06;;;;;;;7.75;3.67;;;;;;;;;;10063746;28;20100;-65
2022/07/28 17:27:00;;;;;;;4.22;3.83;;;;;;;;;;10067250;28;20424;-64
2022/07/28 17:32:14;;;;;;;7.95;4.13;;;;;;;;;;10071988;28;20675;-65
2022/07/28 17:37:07;;;;;;;7.63;3.80;;;;;;;;;;10069974;28;20051;-65
2022/07/28 17:42:01;;;;;;;5.70;4.00;;;;;;;;;;10066475;28;20391;-65
2022/07/28 17:46:55;;;;;;;5.10;4.00;;;;;;;;;;10067928;28;20064;-65
2022/07/28 17:51:49;;;;;;;4.88;4.13;;;;;;;;;;10065627;28;20048;-65
2022/07/28 17:56:43;;;;;;;6.45;3.90;;;;;;;;;;10065042;28;20049;-65
2022/07/28 18:01:37;;;;;;;9.90;5.03;;;;;;;;;;10081491;28;20056;-65
2022/07/28 18:06:39;;;;;;;6.90;3.90;;;;;;;;;;10073794;28;20053;-65
2022/07/28 18:11:32;;;;;;;6.72;4.78;;;;;;;;;;10072767;28;20488;-65
2022/07/28 18:16:27;;;;;;;7.97;4.00;;;;;;;;;;10076994;28;20045;-65
2022/07/28 18:21:22;;;;;;;8.98;4.47;;;;;;;;;;10066307;28;20053;-65
2022/07/28 18:26:16;;;;;;;6.85;4.00;;;;;;;;;;10060188;28;20377;-65
2022/07/28 18:31:10;;;;;;;4.20;3.80;;;;;;;;;;10048584;28;20084;-65
2022/07/28 18:36:05;;;;;;;3.88;3.38;;;;;;;;;;10066439;28;20415;-65
2022/07/28 18:41:00;;;;;;;13.30;5.13;;;;;;;;;;10069371;28;20108;-66
2022/07/28 18:45:54;;;;;;;20.67;4.53;;;;;;;;;;10065296;28;20053;-66
2022/07/28 18:50:48;;;;;;;5.47;4.68;;;;;;;;;;10066269;28;20116;-66
2022/07/28 18:55:43;;;;;;;7.57;4.35;;;;;;;;;;10064823;28;20562;-66
2022/07/28 19:00:37;;;;;;;6.32;4.05;;;;;;;;;;10067673;28;20095;-66
2022/07/28 19:05:31;;;;;;;5.90;4.00;;;;;;;;;;10071308;28;20570;-64
2022/07/28 19:10:29;;;;;;;6.43;3.70;;;;;;;;;;10066422;28;20057;-66
2022/07/28 19:15:24;;;;;;;10.52;3.90;;;;;;;;;;10065243;28;20111;-62
2022/07/28 19:20:19;;;;;;;4.82;3.45;;;;;;;;;;10072050;28;20061;-67
2022/07/28 19:25:13;;;;;;;5.15;3.72;;;;;;;;;;10073372;28;20133;-66
2022/07/28 19:30:11;;;;;;;7.78;4.00;;;;;;;;;;10073709;28;20385;-67
2022/07/28 19:35:06;;;;;;;5.97;4.20;;;;;;;;;;10063971;28;20160;-65
2022/07/28 19:40:00;;;;;;;6.18;4.32;;;;;;;;;;10073777;28;20137;-66
2022/07/28 19:44:55;;;;;;;4.10;3.70;;;;;;;;;;10064047;28;20484;-67
2022/07/28 19:49:48;;;;;;;11.90;3.75;;;;;;;;;;10063687;28;20054;-67
2022/07/28 19:54:43;;;;;;;6.93;4.35;;;;;;;;;;10072622;28;20059;-67
2022/07/28 19:59:43;;;;;;;7.45;3.70;;;;;;;;;;10071910;28;20510;-68
2022/07/28 20:04:37;;;;;;;3.85;3.20;;;;;;;;;;10072079;28;20058;-72
2022/07/28 20:09:32;;;;;;;7.53;3.65;;;;;;;;;;10063894;28;20115;-77
2022/07/28 20:14:26;;;;;;;5.15;3.47;;;;;;;;;;10066331;28;20057;-74
2022/07/28 20:19:20;;;;;;;5.97;3.88;;;;;;;;;;10063558;28;20747;-74
2022/07/28 20:24:14;;;;;;;8.15;3.72;;;;;;;;;;10072453;28;20073;-75
2022/07/28 20:29:10;;;;;;;5.82;3.75;;;;;;;;;;10064707;28;20049;-78
2022/07/28 20:34:07;;;;;;;5.93;4.13;;;;;;;;;;10068489;28;20103;-78
2022/07/28 20:39:02;;;;;;;4.80;4.20;;;;;;;;;;10075670;28;20061;-78
2022/07/28 20:44:16;;;;;;;7.05;3.70;;;;;;;;;;10066385;28;20041;-78
2022/07/28 20:49:21;;;;;;;4.00;3.30;;;;;;;;;;10071935;28;20061;-77
2022/07/28 20:54:15;;;;;;;5.10;2.90;;;;;;;;;;10081776;28;20542;-78
2022/07/28 20:59:10;;;;;;;6.95;3.08;;;;;;;;;;10074616;28;20072;-78
2022/07/28 21:04:05;;;;;;;6.97;3.15;;;;;;;;;;10064189;28;20049;-78
2022/07/28 21:09:03;;;;;;;4.10;3.00;;;;;;;;;;10064851;28;20133;-79
2022/07/28 21:13:57;;;;;;;5.38;2.65;;;;;;;;;;10065027;28;20060;-78
2022/07/28 21:18:50;;;;;;;6.88;3.00;;;;;;;;;;10065023;28;20064;-79
2022/07/28 21:23:44;;;;;;;4.15;3.28;;;;;;;;;;10068063;28;20096;-77
2022/07/28 21:33:50;;;;;;;10.10;4.57;;;;;;;;;;10062512;28;20500;-77
2022/07/28 21:38:45;;;;;;;10.23;3.35;;;;;;;;;;10062567;28;20041;-71
2022/07/28 21:43:39;;;;;;;5.97;2.85;;;;;;;;;;10068336;28;20119;-69
2022/07/28 21:48:35;;;;;;;8.23;4.17;;;;;;;;;;10068989;28;20526;-72
2022/07/28 21:53:30;;;;;;;3.10;2.72;;;;;;;;;;10068554;28;20058;-73
2022/07/28 21:58:24;;;;;;;5.68;2.67;;;;;;;;;;10068518;28;20061;-73
2022/07/28 22:03:19;;;;;;;10.18;3.60;;;;;;;;;;10068217;28;20045;-72
2022/07/28 22:08:13;;;;;;;3.85;3.00;;;;;;;;;;10060157;28;20049;-71
2022/07/28 22:13:07;;;;;;;5.50;3.42;;;;;;;;;;10067377;28;20061;-73
2022/07/28 22:18:01;;;;;;;4.78;3.10;;;;;;;;;;10066282;28;20049;-72
2022/07/28 22:22:55;;;;;;;3.30;3.00;;;;;;;;;;10067294;28;20054;-76
2022/07/28 22:27:49;;;;;;;3.85;2.97;;;;;;;;;;10066961;28;20104;-74
2022/07/28 22:32:43;;;;;;;5.28;3.10;;;;;;;;;;10059841;28;20064;-74
2022/07/28 22:37:38;;;;;;;3.42;2.95;;;;;;;;;;10069989;28;20069;-74
2022/07/28 22:42:32;;;;;;;3.22;2.80;;;;;;;;;;10066257;28;20057;-76
2022/07/28 22:47:26;;;;;;;4.55;3.10;;;;;;;;;;10066975;28;20083;-75
2022/07/28 22:52:43;;;;;;;2.78;2.58;;;;;;;;;;10068143;28;20059;-73
2022/07/28 22:57:37;;;;;;;4.68;3.08;;;;;;;;;;10065981;28;20057;-74
2022/07/28 23:02:31;;;;;;;3.13;2.67;;;;;;;;;;10066663;28;20064;-75
2022/07/28 23:07:25;;;;;;;4.30;2.78;;;;;;;;;;10066690;28;20057;-75
2022/07/28 23:12:40;;;;;;;6.35;3.78;;;;;;;;;;10066033;28;20133;-75
2022/07/28 23:17:34;;;;;;;5.68;3.03;;;;;;;;;;10066787;28;20045;-75
2022/07/28 23:22:29;;;;;;;4.88;3.17;;;;;;;;;;10066788;28;20053;-75
2022/07/28 23:27:24;;;;;;;4.57;3.28;;;;;;;;;;10065020;28;20512;-75
2022/07/28 23:32:19;;;;;;;3.63;3.25;;;;;;;;;;10065632;28;20084;-74
2022/07/28 23:37:13;;;;;;;3.75;3.25;;;;;;;;;;10065284;28;20057;-74
2022/07/28 23:42:08;;;;;;;3.55;3.17;;;;;;;;;;10063265;28;20045;-74
2022/07/28 23:47:03;;;;;;;8.18;5.45;;;;;;;;;;10071522;28;20504;-74
2022/07/28 23:51:57;;;;;;;9.68;5.80;;;;;;;;;;10072839;28;20049;-74
2022/07/28 23:56:53;;;;;;;6.32;4.72;;;;;;;;;;10072562;28;20473;-74
